Time;durP1;ratioP1;P1;durP2;ratioP2;P2;SDS_P1;SDS_P2;PMS_P1;PMS_P2;Temp;Humidity;BMP_temperature;BMP_pressure;BME280_temperature;BME280_humidity;BME280_pressure;Samples;Min_cycle;Max_cycle;Signal;HPM_P1;HPM_P2
2022/06/02 00:00:10;;;;;;;;;;;;;;;;;;351777;153;857511;-59
2022/06/02 00:01:12;;;;;;;;;;;;;;;;;;351024;150;856321;-59
2022/06/02 00:02:13;;;;;;;;;;;;;;;;;;350335;153;855905;-59
2022/06/02 00:03:15;;;;;;;;;;;;;;;;;;352777;151;857322;-60
2022/06/02 00:04:16;;;;;;;;;;;;;;;;;;349589;150;855946;-62
2022/06/02 00:05:18;;;;;;;;;;;;;;;;;;357555;147;856769;-63
2022/06/02 00:06:19;;;;;;;;;;;;;;;;;;359226;148;855987;-60
2022/06/02 00:07:20;;;;;;;;;;;;;;;;;;359853;148;856373;-60
2022/06/02 00:08:22;;;;;;;;;;;;;;;;;;359437;147;856074;-60
2022/06/02 00:09:23;;;;;;;;;;;;;;;;;;359575;147;855942;-60
2022/06/02 00:10:25;;;;;;;;;;;;;;;;;;350113;153;857939;-60
2022/06/02 00:11:29;;;;;;;;;;;;;;;;;;351283;150;855242;-60
2022/06/02 00:12:30;;;;;;;;;;;;;;;;;;350807;151;855923;-60
2022/06/02 00:13:31;;;;;;;;;;;;;;;;;;351781;153;855793;-60
2022/06/02 00:14:32;;;;;;;;;;;;;;;;;;355805;150;855902;-60
2022/06/02 00:15:34;;;;;;;;;;;;;;;;;;351851;150;857537;-60
2022/06/02 00:16:35;;;;;;;;;;;;;;;;;;353410;149;855815;-60
2022/06/02 00:17:37;;;;;;;;;;;;;;;;;;351692;153;857628;-60
2022/06/02 00:18:40;;;;;;;;;;;;;;;;;;352768;150;855942;-60
2022/06/02 00:19:42;;;;;;;;;;;;;;;;;;350188;153;855829;-60
2022/06/02 00:20:43;;;;;;;;;;;;;;;;;;353901;151;855849;-60
2022/06/02 00:21:45;;;;;;;;;;;;;;;;;;355258;150;857655;-59
2022/06/02 00:22:46;;;;;;;;;;;;;;;;;;351642;150;855809;-59
2022/06/02 00:23:48;;;;;;;;;;;;;;;;;;354333;150;855886;-59
2022/06/02 00:24:49;;;;;;;;;;;;;;;;;;353064;150;855861;-60
2022/06/02 00:25:50;;;;;;;;;;;;;;;;;;350008;153;855813;-60
2022/06/02 00:26:52;;;;;;;;;;;;;;;;;;353021;150;856052;-60
2022/06/02 00:27:53;;;;;;;;;;;;;;;;;;354610;152;855966;-59
2022/06/02 00:28:55;;;;;;;;;;;;;;;;;;353962;151;857565;-60
2022/06/02 00:29:56;;;;;;;;;;;;;;;;;;351718;153;855899;-59
2022/06/02 00:30:58;;;;;;;;;;;;;;;;;;353250;150;855818;-59
2022/06/02 00:31:59;;;;;;;;;;;;;;;;;;351452;153;856230;-60
2022/06/02 00:33:01;;;;;;;;;;;;;;;;;;350621;153;855722;-59
2022/06/02 00:34:02;;;;;;;;;;;;;;;;;;352872;151;855589;-62
2022/06/02 00:35:03;;;;;;;;;;;;;;;;;;355029;151;855810;-61
2022/06/02 00:36:05;;;;;;;;;;;;;;;;;;354460;150;856218;-62
2022/06/02 00:37:06;;;;;;;;;;;;;;;;;;351493;153;855972;-62
2022/06/02 00:38:08;;;;;;;;;;;;;;;;;;349838;151;857557;-60
2022/06/02 00:39:09;;;;;;;;;;;;;;;;;;354087;152;856223;-60
2022/06/02 00:40:11;;;;;;;;;;;;;;;;;;354055;151;855698;-60
2022/06/02 00:41:12;;;;;;;;;;;;;;;;;;354294;150;856610;-60
2022/06/02 00:42:14;;;;;;;;;;;;;;;;;;352081;153;855870;-59
2022/06/02 00:43:15;;;;;;;;;;;;;;;;;;350360;153;855833;-59
2022/06/02 00:44:17;;;;;;;;;;;;;;;;;;356981;150;855807;-59
2022/06/02 00:45:18;;;;;;;;;;;;;;;;;;349099;153;855965;-60
2022/06/02 00:46:20;;;;;;;;;;;;;;;;;;354109;150;856603;-59
2022/06/02 00:47:21;;;;;;;;;;;;;;;;;;353476;151;855897;-59
2022/06/02 00:48:23;;;;;;;;;;;;;;;;;;353377;150;856840;-59
2022/06/02 00:49:24;;;;;;;;;;;;;;;;;;354002;151;855970;-59
2022/06/02 00:50:25;;;;;;;;;;;;;;;;;;349839;153;855926;-59
2022/06/02 00:51:27;;;;;;;;;;;;;;;;;;351856;153;856589;-59
2022/06/02 00:52:28;;;;;;;;;;;;;;;;;;352404;153;855880;-59
2022/06/02 00:53:29;;;;;;;;;;;;;;;;;;350270;151;857248;-59
2022/06/02 00:58:30;;;;;;;;;;;;;;;;;;349588;153;856464;-60
2022/06/02 00:59:32;;;;;;;;;;;;;;;;;;352368;153;855212;-60
2022/06/02 01:00:34;;;;;;;;;;;;;;;;;;351222;153;855805;-60
2022/06/02 01:01:36;;;;;;;;;;;;;;;;;;351056;153;855829;-60
2022/06/02 01:02:37;;;;;;;;;;;;;;;;;;350609;153;855776;-60
2022/06/02 01:03:39;;;;;;;;;;;;;;;;;;349308;153;855853;-60
2022/06/02 01:04:40;;;;;;;;;;;;;;;;;;351346;153;855810;-60
2022/06/02 01:05:41;;;;;;;;;;;;;;;;;;349737;153;857487;-60
2022/06/02 01:06:43;;;;;;;;;;;;;;;;;;352104;153;855832;-60
2022/06/02 01:07:44;;;;;;;;;;;;;;;;;;350843;153;857763;-60
2022/06/02 01:08:46;;;;;;;;;;;;;;;;;;349762;153;856332;-60
2022/06/02 01:09:47;;;;;;;;;;;;;;;;;;348565;146;855412;-60
2022/06/02 01:10:48;;;;;;;;;;;;;;;;;;338418;157;855987;-60
2022/06/02 01:11:50;;;;;;;;;;;;;;;;;;339465;157;855830;-60
2022/06/02 01:12:51;;;;;;;;;;;;;;;;;;339069;157;856531;-60
2022/06/02 01:13:52;;;;;;;;;;;;;;;;;;344009;155;856288;-61
2022/06/02 01:14:54;;;;;;;;;;;;;;;;;;337628;157;855817;-60
2022/06/02 01:15:55;;;;;;;;;;;;;;;;;;337648;160;855923;-60
2022/06/02 01:16:56;;;;;;;;;;;;;;;;;;338765;157;855860;-60
2022/06/02 01:17:58;;;;;;;;;;;;;;;;;;337451;160;856360;-61
2022/06/02 01:18:59;;;;;;;;;;;;;;;;;;341755;155;855833;-60
2022/06/02 01:20:02;;;;;;;;;;;;;;;;;;343542;154;855149;-60
2022/06/02 01:21:03;;;;;;;;;;;;;;;;;;337772;158;855780;-59
2022/06/02 01:22:05;;;;;;;;;;;;;;;;;;337568;160;855671;-61
2022/06/02 01:23:07;;;;;;;;;;;;;;;;;;342071;155;855693;-60
2022/06/02 01:24:09;;;;;;;;;;;;;;;;;;337727;160;856932;-60
2022/06/02 01:25:10;;;;;;;;;;;;;;;;;;342208;158;855843;-60
2022/06/02 01:26:12;;;;;;;;;;;;;;;;;;342139;156;855965;-60
2022/06/02 01:27:13;;;;;;;;;;;;;;;;;;341251;158;855843;-60
2022/06/02 01:28:15;;;;;;;;;;;;;;;;;;342727;158;856528;-60
2022/06/02 01:29:16;;;;;;;;;;;;;;;;;;342154;156;855819;-60
2022/06/02 01:30:17;;;;;;;;;;;;;;;;;;342129;156;855881;-60
2022/06/02 01:31:19;;;;;;;;;;;;;;;;;;339667;156;856896;-60
2022/06/02 01:32:20;;;;;;;;;;;;;;;;;;343366;156;855913;-60
2022/06/02 01:33:22;;;;;;;;;;;;;;;;;;340610;156;856843;-60
2022/06/02 01:34:24;;;;;;;;;;;;;;;;;;342836;158;856197;-60
2022/06/02 01:35:25;;;;;;;;;;;;;;;;;;341355;158;855950;-60
2022/06/02 01:36:27;;;;;;;;;;;;;;;;;;341602;156;855843;-60
2022/06/02 01:37:28;;;;;;;;;;;;;;;;;;337001;157;855913;-60
2022/06/02 01:38:30;;;;;;;;;;;;;;;;;;335893;160;856281;-60
2022/06/02 01:39:31;;;;;;;;;;;;;;;;;;338034;160;856673;-60
2022/06/02 01:40:32;;;;;;;;;;;;;;;;;;342217;158;856469;-60
2022/06/02 01:41:34;;;;;;;;;;;;;;;;;;340316;158;855941;-59
2022/06/02 01:42:35;;;;;;;;;;;;;;;;;;342144;156;855808;-59
2022/06/02 01:43:37;;;;;;;;;;;;;;;;;;342574;156;855580;-60
2022/06/02 01:44:38;;;;;;;;;;;;;;;;;;341960;158;855765;-60
2022/06/02 01:45:39;;;;;;;;;;;;;;;;;;336082;160;855224;-60
2022/06/02 01:46:42;;;;;;;;;;;;;;;;;;335910;158;855947;-60
2022/06/02 01:47:43;;;;;;;;;;;;;;;;;;337157;160;855833;-59
2022/06/02 01:48:45;;;;;;;;;;;;;;;;;;338975;158;855872;-60
2022/06/02 01:49:46;;;;;;;;;;;;;;;;;;337640;160;856020;-60
2022/06/02 01:50:47;;;;;;;;;;;;;;;;;;337765;160;855882;-61
2022/06/02 01:51:49;;;;;;;;;;;;;;;;;;341084;159;857186;-60
2022/06/02 01:52:50;;;;;;;;;;;;;;;;;;336244;157;855960;-60
2022/06/02 01:53:52;;;;;;;;;;;;;;;;;;342762;155;855828;-60
2022/06/02 01:54:53;;;;;;;;;;;;;;;;;;343816;155;855842;-60
2022/06/02 01:55:54;;;;;;;;;;;;;;;;;;337860;160;857021;-60
2022/06/02 01:56:56;;;;;;;;;;;;;;;;;;337609;160;855873;-60
2022/06/02 01:57:57;;;;;;;;;;;;;;;;;;342463;158;855868;-60
2022/06/02 01:58:59;;;;;;;;;;;;;;;;;;343253;156;858081;-60
2022/06/02 02:00:00;;;;;;;;;;;;;;;;;;342539;158;855115;-60
2022/06/02 02:01:01;;;;;;;;;;;;;;;;;;342720;155;855932;-60
2022/06/02 02:02:03;;;;;;;;;;;;;;;;;;341105;158;856232;-60
2022/06/02 02:03:04;;;;;;;;;;;;;;;;;;342092;155;855796;-59
2022/06/02 02:04:06;;;;;;;;;;;;;;;;;;342606;156;857397;-60
2022/06/02 02:05:07;;;;;;;;;;;;;;;;;;343297;156;856075;-59
2022/06/02 02:06:09;;;;;;;;;;;;;;;;;;343040;156;855877;-59
2022/06/02 02:07:10;;;;;;;;;;;;;;;;;;341870;156;855875;-60
2022/06/02 02:08:12;;;;;;;;;;;;;;;;;;341161;156;855889;-61
2022/06/02 02:09:13;;;;;;;;;;;;;;;;;;339745;158;858257;-61
2022/06/02 02:10:15;;;;;;;;;;;;;;;;;;342220;155;857056;-61
2022/06/02 02:11:16;;;;;;;;;;;;;;;;;;341203;155;856339;-61
2022/06/02 02:12:17;;;;;;;;;;;;;;;;;;342206;155;855817;-61
2022/06/02 02:13:19;;;;;;;;;;;;;;;;;;342592;156;855929;-61
2022/06/02 02:14:20;;;;;;;;;;;;;;;;;;342703;155;856608;-60
2022/06/02 02:15:21;;;;;;;;;;;;;;;;;;342678;155;855885;-59
2022/06/02 02:16:23;;;;;;;;;;;;;;;;;;342855;155;856917;-60
2022/06/02 02:17:24;;;;;;;;;;;;;;;;;;341917;158;856031;-60
2022/06/02 02:18:25;;;;;;;;;;;;;;;;;;341170;155;856361;-60
2022/06/02 02:19:27;;;;;;;;;;;;;;;;;;335851;158;856540;-59
2022/06/02 02:20:28;;;;;;;;;;;;;;;;;;338658;157;856714;-60
2022/06/02 02:21:30;;;;;;;;;;;;;;;;;;337075;157;855814;-60
2022/06/02 02:22:31;;;;;;;;;;;;;;;;;;338301;158;855900;-59
2022/06/02 02:23:33;;;;;;;;;;;;;;;;;;342782;154;855766;-59
2022/06/02 02:24:34;;;;;;;;;;;;;;;;;;340888;154;855961;-60
2022/06/02 02:25:36;;;;;;;;;;;;;;;;;;343130;155;855846;-60
2022/06/02 02:26:37;;;;;;;;;;;;;;;;;;341382;155;856555;-60
2022/06/02 02:28:02;;;;;;;;;;;;;;;;;;335116;158;855940;-59
2022/06/02 02:28:42;;;;;;;;;;;;;;;;;;336546;157;857729;-60
2022/06/02 02:29:43;;;;;;;;;;;;;;;;;;339257;157;856150;-60
2022/06/02 02:30:45;;;;;;;;;;;;;;;;;;342451;155;855835;-59
2022/06/02 02:31:46;;;;;;;;;;;;;;;;;;341327;155;856134;-60
2022/06/02 02:32:48;;;;;;;;;;;;;;;;;;342804;155;855979;-60
2022/06/02 02:33:49;;;;;;;;;;;;;;;;;;343918;155;855944;-60
2022/06/02 02:34:51;;;;;;;;;;;;;;;;;;337639;158;855850;-60
2022/06/02 02:35:52;;;;;;;;;;;;;;;;;;337685;160;856714;-59
2022/06/02 02:36:54;;;;;;;;;;;;;;;;;;331319;160;855953;-60
2022/06/02 02:37:55;;;;;;;;;;;;;;;;;;337816;157;857567;-60
2022/06/02 02:38:56;;;;;;;;;;;;;;;;;;337109;158;856286;-60
2022/06/02 02:39:58;;;;;;;;;;;;;;;;;;338227;160;855919;-60
2022/06/02 02:41:00;;;;;;;;;;;;;;;;;;342749;156;856466;-60
2022/06/02 02:42:02;;;;;;;;;;;;;;;;;;341695;155;855834;-59
2022/06/02 02:43:03;;;;;;;;;;;;;;;;;;342879;156;855846;-61
2022/06/02 02:44:04;;;;;;;;;;;;;;;;;;342756;156;856432;-60
2022/06/02 02:45:07;;;;;;;;;;;;;;;;;;342835;155;855798;-60
2022/06/02 02:46:09;;;;;;;;;;;;;;;;;;341808;156;856640;-60
2022/06/02 02:47:10;;;;;;;;;;;;;;;;;;341095;155;855829;-60
2022/06/02 02:48:11;;;;;;;;;;;;;;;;;;342441;158;857225;-59
2022/06/02 02:49:13;;;;;;;;;;;;;;;;;;342243;156;856400;-60
2022/06/02 02:50:14;;;;;;;;;;;;;;;;;;342535;158;856710;-60
2022/06/02 02:51:16;;;;;;;;;;;;;;;;;;342011;158;856337;-60
2022/06/02 02:52:18;;;;;;;;;;;;;;;;;;342826;155;855779;-60
2022/06/02 02:53:20;;;;;;;;;;;;;;;;;;342092;158;856866;-60
2022/06/02 02:54:21;;;;;;;;;;;;;;;;;;342020;158;855933;-60
2022/06/02 02:55:23;;;;;;;;;;;;;;;;;;342401;155;857623;-60
2022/06/02 02:56:24;;;;;;;;;;;;;;;;;;339695;158;856195;-59
2022/06/02 02:57:26;;;;;;;;;;;;;;;;;;335310;160;855187;-60
2022/06/02 02:58:28;;;;;;;;;;;;;;;;;;337330;158;858121;-60
2022/06/02 02:59:29;;;;;;;;;;;;;;;;;;343819;155;855941;-60
2022/06/02 03:00:31;;;;;;;;;;;;;;;;;;336480;160;855189;-60
2022/06/02 03:01:32;;;;;;;;;;;;;;;;;;336469;157;856074;-60
2022/06/02 03:02:34;;;;;;;;;;;;;;;;;;337508;160;855776;-60
2022/06/02 03:03:36;;;;;;;;;;;;;;;;;;338659;156;857258;-60
2022/06/02 03:04:38;;;;;;;;;;;;;;;;;;343562;155;856048;-60
2022/06/02 03:05:39;;;;;;;;;;;;;;;;;;342644;155;855857;-60
2022/06/02 03:06:42;;;;;;;;;;;;;;;;;;343599;155;856578;-60
2022/06/02 03:07:43;;;;;;;;;;;;;;;;;;343039;155;856304;-61
2022/06/02 03:08:45;;;;;;;;;;;;;;;;;;341284;155;855805;-59
2022/06/02 03:09:47;;;;;;;;;;;;;;;;;;343519;155;858329;-59
2022/06/02 03:10:49;;;;;;;;;;;;;;;;;;342601;155;856394;-59
2022/06/02 03:11:50;;;;;;;;;;;;;;;;;;338974;157;858522;-60
2022/06/02 03:12:51;;;;;;;;;;;;;;;;;;338348;157;855895;-59
2022/06/02 03:13:53;;;;;;;;;;;;;;;;;;337347;157;856883;-60
2022/06/02 03:14:54;;;;;;;;;;;;;;;;;;337774;157;855967;-59
2022/06/02 03:15:55;;;;;;;;;;;;;;;;;;338037;157;856826;-58
2022/06/02 03:16:57;;;;;;;;;;;;;;;;;;337997;157;856778;-59
2022/06/02 03:17:58;;;;;;;;;;;;;;;;;;336641;157;856239;-59
2022/06/02 03:19:00;;;;;;;;;;;;;;;;;;336475;157;855861;-58
2022/06/02 03:20:01;;;;;;;;;;;;;;;;;;335222;158;857661;-60
2022/06/02 03:21:02;;;;;;;;;;;;;;;;;;329723;160;855870;-58
2022/06/02 03:22:04;;;;;;;;;;;;;;;;;;332143;160;855794;-58
2022/06/02 03:23:06;;;;;;;;;;;;;;;;;;330168;160;855837;-58
2022/06/02 03:24:07;;;;;;;;;;;;;;;;;;332359;160;855777;-59
2022/06/02 03:25:09;;;;;;;;;;;;;;;;;;330380;160;856007;-58
2022/06/02 03:26:11;;;;;;;;;;;;;;;;;;331357;160;855994;-58
2022/06/02 03:27:12;;;;;;;;;;;;;;;;;;333174;160;855971;-58
2022/06/02 03:28:14;;;;;;;;;;;;;;;;;;331250;160;856106;-59
2022/06/02 03:29:15;;;;;;;;;;;;;;;;;;333781;159;856504;-58
2022/06/02 03:30:16;;;;;;;;;;;;;;;;;;327903;162;855871;-57
2022/06/02 03:31:18;;;;;;;;;;;;;;;;;;327114;162;855836;-58
2022/06/02 03:32:19;;;;;;;;;;;;;;;;;;332691;159;856909;-58
2022/06/02 03:33:21;;;;;;;;;;;;;;;;;;333324;159;855934;-58
2022/06/02 03:34:22;;;;;;;;;;;;;;;;;;334459;159;856499;-58
2022/06/02 03:35:23;;;;;;;;;;;;;;;;;;337514;159;855950;-58
2022/06/02 03:36:25;;;;;;;;;;;;;;;;;;334813;159;857690;-59
2022/06/02 03:37:26;;;;;;;;;;;;;;;;;;336226;159;855962;-58
2022/06/02 03:38:27;;;;;;;;;;;;;;;;;;334369;159;855977;-58
2022/06/02 03:39:29;;;;;;;;;;;;;;;;;;332938;159;856071;-58
2022/06/02 03:40:30;;;;;;;;;;;;;;;;;;338089;159;855883;-59
2022/06/02 03:41:32;;;;;;;;;;;;;;;;;;337414;159;857395;-59
2022/06/02 03:42:33;;;;;;;;;;;;;;;;;;333950;160;855800;-59
2022/06/02 03:43:35;;;;;;;;;;;;;;;;;;332445;159;855938;-58
2022/06/02 03:44:36;;;;;;;;;;;;;;;;;;334458;159;855875;-58
2022/06/02 03:45:38;;;;;;;;;;;;;;;;;;334442;159;855795;-58
2022/06/02 03:46:39;;;;;;;;;;;;;;;;;;334674;159;855855;-59
2022/06/02 03:47:41;;;;;;;;;;;;;;;;;;334154;159;857193;-59
2022/06/02 03:48:42;;;;;;;;;;;;;;;;;;332223;159;856352;-60
2022/06/02 03:49:44;;;;;;;;;;;;;;;;;;333004;159;856278;-58
2022/06/02 03:50:45;;;;;;;;;;;;;;;;;;331699;159;855855;-60
2022/06/02 03:51:47;;;;;;;;;;;;;;;;;;333427;159;855814;-60
2022/06/02 03:52:48;;;;;;;;;;;;;;;;;;334034;159;857066;-60
2022/06/02 03:53:49;;;;;;;;;;;;;;;;;;334127;159;855985;-61
2022/06/02 03:54:51;;;;;;;;;;;;;;;;;;334022;159;855850;-60
2022/06/02 03:55:52;;;;;;;;;;;;;;;;;;333883;159;857527;-60
2022/06/02 03:56:53;;;;;;;;;;;;;;;;;;334431;159;856422;-60
2022/06/02 03:57:55;;;;;;;;;;;;;;;;;;334047;159;855867;-59
2022/06/02 03:58:56;;;;;;;;;;;;;;;;;;334552;159;857014;-60
2022/06/02 03:59:57;;;;;;;;;;;;;;;;;;334860;159;855870;-59
2022/06/02 04:00:59;;;;;;;;;;;;;;;;;;335909;159;857654;-58
2022/06/02 04:02:01;;;;;;;;;;;;;;;;;;334256;159;855845;-58
2022/06/02 04:03:03;;;;;;;;;;;;;;;;;;334399;158;855853;-57
2022/06/02 04:04:04;;;;;;;;;;;;;;;;;;334344;159;857621;-56
2022/06/02 04:05:05;;;;;;;;;;;;;;;;;;334266;159;855682;-56
2022/06/02 04:06:07;;;;;;;;;;;;;;;;;;334684;159;855737;-57
2022/06/02 04:07:08;;;;;;;;;;;;;;;;;;330403;159;858750;-58
2022/06/02 04:08:09;;;;;;;;;;;;;;;;;;332345;159;855861;-57
2022/06/02 04:09:11;;;;;;;;;;;;;;;;;;334332;159;856517;-57
2022/06/02 04:10:12;;;;;;;;;;;;;;;;;;333556;162;857612;-58
2022/06/02 04:11:14;;;;;;;;;;;;;;;;;;333087;158;856917;-59
2022/06/02 04:13:38;;;;;;;;;;;;;;;;;;342784;156;856308;-57
2022/06/02 04:14:40;;;;;;;;;;;;;;;;;;337709;157;857582;-58
2022/06/02 04:15:41;;;;;;;;;;;;;;;;;;344994;155;855856;-58
2022/06/02 04:16:42;;;;;;;;;;;;;;;;;;338370;157;856465;-58
2022/06/02 04:17:44;;;;;;;;;;;;;;;;;;336965;156;855906;-58
2022/06/02 04:18:45;;;;;;;;;;;;;;;;;;336962;158;856108;-59
2022/06/02 04:21:07;;;;;;;;;;;;;;;;;;338068;157;855747;-58
2022/06/02 04:22:09;;;;;;;;;;;;;;;;;;337132;158;855880;-57
2022/06/02 04:23:11;;;;;;;;;;;;;;;;;;337779;158;857584;-59
2022/06/02 04:24:12;;;;;;;;;;;;;;;;;;337408;157;855892;-57
2022/06/02 04:25:14;;;;;;;;;;;;;;;;;;343808;155;855859;-57
2022/06/02 04:26:15;;;;;;;;;;;;;;;;;;337849;160;857232;-57
2022/06/02 04:27:16;;;;;;;;;;;;;;;;;;339668;158;855897;-58
2022/06/02 04:28:19;;;;;;;;;;;;;;;;;;339934;156;855982;-59
2022/06/02 04:29:20;;;;;;;;;;;;;;;;;;339657;158;855825;-59
2022/06/02 04:30:21;;;;;;;;;;;;;;;;;;340896;156;855612;-58
2022/06/02 04:31:23;;;;;;;;;;;;;;;;;;340314;156;856050;-58
2022/06/02 04:32:24;;;;;;;;;;;;;;;;;;339382;156;855963;-61
2022/06/02 04:33:26;;;;;;;;;;;;;;;;;;340291;156;855857;-58
2022/06/02 04:34:27;;;;;;;;;;;;;;;;;;339563;158;855217;-58
2022/06/02 04:35:28;;;;;;;;;;;;;;;;;;340678;159;857655;-58
2022/06/02 04:36:30;;;;;;;;;;;;;;;;;;340365;159;855802;-58
2022/06/02 04:37:31;;;;;;;;;;;;;;;;;;333581;162;855674;-59
2022/06/02 04:38:33;;;;;;;;;;;;;;;;;;333640;162;856929;-60
2022/06/02 04:39:34;;;;;;;;;;;;;;;;;;339378;159;855752;-58
2022/06/02 04:40:35;;;;;;;;;;;;;;;;;;340538;159;858096;-59
2022/06/02 04:41:38;;;;;;;;;;;;;;;;;;341174;159;855813;-58
2022/06/02 04:42:39;;;;;;;;;;;;;;;;;;340547;156;855858;-59
2022/06/02 04:43:40;;;;;;;;;;;;;;;;;;341303;156;857823;-58
2022/06/02 04:44:42;;;;;;;;;;;;;;;;;;340333;156;855836;-57
2022/06/02 04:46:50;;;;;;;;;;;;;;;;;;340111;155;855492;-83
2022/06/02 04:47:52;;;;;;;;;;;;;;;;;;336613;161;855766;-81
2022/06/02 04:48:53;;;;;;;;;;;;;;;;;;331916;161;855881;-82
2022/06/02 04:49:54;;;;;;;;;;;;;;;;;;336325;158;855720;-82
2022/06/02 04:50:56;;;;;;;;;;;;;;;;;;335257;158;857727;-81
2022/06/02 04:51:57;;;;;;;;;;;;;;;;;;336157;159;855821;-82
2022/06/02 04:52:59;;;;;;;;;;;;;;;;;;333573;159;857783;-81
2022/06/02 04:54:00;;;;;;;;;;;;;;;;;;331647;159;855873;-82
2022/06/02 04:55:02;;;;;;;;;;;;;;;;;;337413;158;855492;-82
2022/06/02 04:56:03;;;;;;;;;;;;;;;;;;336704;158;855723;-82
2022/06/02 04:57:05;;;;;;;;;;;;;;;;;;334749;158;856144;-81
2022/06/02 04:58:06;;;;;;;;;;;;;;;;;;337130;158;855694;-82
2022/06/02 04:59:10;;;;;;;;;;;;;;;;;;337057;158;857585;-82
2022/06/02 05:00:12;;;;;;;;;;;;;;;;;;337035;158;856313;-82
2022/06/02 05:01:14;;;;;;;;;;;;;;;;;;336872;158;857531;-81
2022/06/02 05:02:15;;;;;;;;;;;;;;;;;;336709;158;856435;-81
2022/06/02 05:03:17;;;;;;;;;;;;;;;;;;339157;158;855777;-81
2022/06/02 05:04:19;;;;;;;;;;;;;;;;;;336245;158;856322;-81
2022/06/02 05:05:20;;;;;;;;;;;;;;;;;;337241;161;855913;-80
2022/06/02 05:06:21;;;;;;;;;;;;;;;;;;334895;158;856890;-80
2022/06/02 05:07:23;;;;;;;;;;;;;;;;;;348797;153;855880;-81
2022/06/02 05:08:27;;;;;;;;;;;;;;;;;;346469;153;856613;-80
2022/06/02 05:09:28;;;;;;;;;;;;;;;;;;348586;153;855430;-78
2022/06/02 05:10:29;;;;;;;;;;;;;;;;;;348409;151;854846;-78
2022/06/02 05:11:33;;;;;;;;;;;;;;;;;;341836;158;855792;-77
2022/06/02 05:12:34;;;;;;;;;;;;;;;;;;337588;158;855791;-77
2022/06/02 05:13:36;;;;;;;;;;;;;;;;;;336797;159;856701;-77
2022/06/02 05:14:37;;;;;;;;;;;;;;;;;;348185;153;855859;-78
2022/06/02 05:15:39;;;;;;;;;;;;;;;;;;347277;153;855834;-78
2022/06/02 05:16:40;;;;;;;;;;;;;;;;;;345630;153;857657;-78
2022/06/02 05:17:41;;;;;;;;;;;;;;;;;;347805;153;855760;-79
2022/06/02 05:18:43;;;;;;;;;;;;;;;;;;347999;153;857572;-78
2022/06/02 05:19:44;;;;;;;;;;;;;;;;;;345404;155;855794;-80
2022/06/02 05:20:47;;;;;;;;;;;;;;;;;;344094;153;857330;-78
2022/06/02 05:21:49;;;;;;;;;;;;;;;;;;340162;158;855855;-80
2022/06/02 05:22:51;;;;;;;;;;;;;;;;;;336117;160;855757;-79
2022/06/02 05:23:54;;;;;;;;;;;;;;;;;;330907;161;856083;-79
2022/06/02 05:24:55;;;;;;;;;;;;;;;;;;336545;158;855653;-79
2022/06/02 05:25:57;;;;;;;;;;;;;;;;;;337982;159;856451;-78
2022/06/02 05:26:59;;;;;;;;;;;;;;;;;;334788;158;855803;-78
2022/06/02 05:28:00;;;;;;;;;;;;;;;;;;342744;155;855899;-78
2022/06/02 05:29:02;;;;;;;;;;;;;;;;;;341854;157;855747;-78
2022/06/02 05:30:03;;;;;;;;;;;;;;;;;;338999;159;857503;-78
2022/06/02 05:31:04;;;;;;;;;;;;;;;;;;335258;158;855433;-78
2022/06/02 05:32:06;;;;;;;;;;;;;;;;;;347182;155;857600;-77
2022/06/02 05:33:07;;;;;;;;;;;;;;;;;;344808;155;855846;-77
2022/06/02 05:34:09;;;;;;;;;;;;;;;;;;339137;158;858527;-78
2022/06/02 05:35:10;;;;;;;;;;;;;;;;;;340571;158;855891;-77
2022/06/02 05:36:11;;;;;;;;;;;;;;;;;;342150;155;856973;-77
2022/06/02 05:37:13;;;;;;;;;;;;;;;;;;336763;158;855994;-77
2022/06/02 05:38:15;;;;;;;;;;;;;;;;;;346975;153;856707;-77
2022/06/02 05:39:16;;;;;;;;;;;;;;;;;;348136;155;855858;-77
2022/06/02 05:40:18;;;;;;;;;;;;;;;;;;348835;153;855738;-78
2022/06/02 05:41:20;;;;;;;;;;;;;;;;;;347495;153;855867;-78
2022/06/02 05:42:22;;;;;;;;;;;;;;;;;;345855;153;857657;-77
2022/06/02 05:43:25;;;;;;;;;;;;;;;;;;347908;153;855702;-76
2022/06/02 05:44:26;;;;;;;;;;;;;;;;;;347854;153;855911;-78
2022/06/02 05:45:28;;;;;;;;;;;;;;;;;;346230;153;856884;-79
2022/06/02 05:46:29;;;;;;;;;;;;;;;;;;345012;154;855920;-78
2022/06/02 05:47:31;;;;;;;;;;;;;;;;;;342525;158;856435;-77
2022/06/02 05:48:32;;;;;;;;;;;;;;;;;;342768;155;855877;-78
2022/06/02 05:49:34;;;;;;;;;;;;;;;;;;343429;157;857502;-77
2022/06/02 05:50:36;;;;;;;;;;;;;;;;;;343373;155;855830;-77
2022/06/02 05:51:40;;;;;;;;;;;;;;;;;;341970;157;855861;-77
2022/06/02 05:52:42;;;;;;;;;;;;;;;;;;341893;155;856744;-78
2022/06/02 05:53:44;;;;;;;;;;;;;;;;;;335196;159;856018;-77
2022/06/02 05:54:45;;;;;;;;;;;;;;;;;;332687;158;855865;-77
2022/06/02 05:55:46;;;;;;;;;;;;;;;;;;339206;158;855619;-77
2022/06/02 05:56:49;;;;;;;;;;;;;;;;;;337919;158;856199;-79
2022/06/02 05:57:50;;;;;;;;;;;;;;;;;;337167;157;855782;-78
2022/06/02 05:58:52;;;;;;;;;;;;;;;;;;336121;160;856525;-77
2022/06/02 05:59:53;;;;;;;;;;;;;;;;;;332356;162;855357;-77
2022/06/02 06:00:55;;;;;;;;;;;;;;;;;;339086;158;855849;-77
2022/06/02 06:01:56;;;;;;;;;;;;;;;;;;345298;152;856738;-76
2022/06/02 06:02:58;;;;;;;;;;;;;;;;;;348244;152;855850;-77
2022/06/02 06:03:59;;;;;;;;;;;;;;;;;;348375;152;857700;-77
2022/06/02 06:05:00;;;;;;;;;;;;;;;;;;347291;152;855831;-77
2022/06/02 06:06:04;;;;;;;;;;;;;;;;;;342907;155;857525;-77
2022/06/02 06:07:06;;;;;;;;;;;;;;;;;;336677;159;855793;-76
2022/06/02 06:08:08;;;;;;;;;;;;;;;;;;343709;155;855718;-75
2022/06/02 06:09:11;;;;;;;;;;;;;;;;;;340903;157;855953;-77
2022/06/02 06:10:13;;;;;;;;;;;;;;;;;;337050;158;855825;-77
2022/06/02 06:11:14;;;;;;;;;;;;;;;;;;339578;157;855908;-77
2022/06/02 06:12:15;;;;;;;;;;;;;;;;;;341127;158;855896;-77
2022/06/02 06:13:17;;;;;;;;;;;;;;;;;;339712;157;857652;-77
2022/06/02 06:14:19;;;;;;;;;;;;;;;;;;344527;157;855981;-77
2022/06/02 06:15:21;;;;;;;;;;;;;;;;;;338590;157;855727;-77
2022/06/02 06:16:22;;;;;;;;;;;;;;;;;;340112;157;857745;-77
2022/06/02 06:17:24;;;;;;;;;;;;;;;;;;335738;157;856658;-77
2022/06/02 06:18:25;;;;;;;;;;;;;;;;;;339019;157;855894;-77
2022/06/02 06:19:27;;;;;;;;;;;;;;;;;;337496;158;855922;-77
2022/06/02 06:20:28;;;;;;;;;;;;;;;;;;340973;157;856057;-77
2022/06/02 06:21:30;;;;;;;;;;;;;;;;;;339426;158;855831;-76
2022/06/02 06:22:31;;;;;;;;;;;;;;;;;;338692;158;855544;-77
2022/06/02 06:23:33;;;;;;;;;;;;;;;;;;339322;160;855627;-77
2022/06/02 06:24:34;;;;;;;;;;;;;;;;;;339133;158;855737;-77
2022/06/02 06:25:36;;;;;;;;;;;;;;;;;;337923;157;855910;-77
2022/06/02 06:26:37;;;;;;;;;;;;;;;;;;340311;157;855851;-77
2022/06/02 06:27:39;;;;;;;;;;;;;;;;;;338932;157;857477;-76
2022/06/02 06:28:41;;;;;;;;;;;;;;;;;;335510;160;855866;-77
2022/06/02 06:29:44;;;;;;;;;;;;;;;;;;338974;157;856288;-75
2022/06/02 06:30:45;;;;;;;;;;;;;;;;;;344163;153;856065;-77
2022/06/02 06:31:47;;;;;;;;;;;;;;;;;;350864;153;855907;-76
2022/06/02 06:32:48;;;;;;;;;;;;;;;;;;347911;152;857583;-78
2022/06/02 06:33:50;;;;;;;;;;;;;;;;;;344520;155;855867;-77
2022/06/02 06:34:52;;;;;;;;;;;;;;;;;;348302;154;856308;-77
2022/06/02 06:35:54;;;;;;;;;;;;;;;;;;350955;152;855747;-76
2022/06/02 06:36:56;;;;;;;;;;;;;;;;;;350513;152;858519;-77
2022/06/02 06:37:58;;;;;;;;;;;;;;;;;;349889;152;855731;-77
2022/06/02 06:38:59;;;;;;;;;;;;;;;;;;352248;152;855889;-77
2022/06/02 06:40:00;;;;;;;;;;;;;;;;;;350895;153;857032;-77
2022/06/02 06:41:03;;;;;;;;;;;;;;;;;;347394;152;855507;-77
2022/06/02 06:42:04;;;;;;;;;;;;;;;;;;348436;152;855668;-77
2022/06/02 06:43:06;;;;;;;;;;;;;;;;;;348830;154;856019;-77
2022/06/02 06:44:07;;;;;;;;;;;;;;;;;;348156;153;856157;-77
2022/06/02 06:45:09;;;;;;;;;;;;;;;;;;347809;154;855861;-76
2022/06/02 06:46:11;;;;;;;;;;;;;;;;;;343032;156;856613;-77
2022/06/02 06:47:12;;;;;;;;;;;;;;;;;;337810;157;856266;-78
2022/06/02 06:48:14;;;;;;;;;;;;;;;;;;342171;157;857399;-78
2022/06/02 06:49:15;;;;;;;;;;;;;;;;;;338495;158;855855;-78
2022/06/02 06:50:21;;;;;;;;;;;;;;;;;;348896;155;856269;-78
2022/06/02 06:51:24;;;;;;;;;;;;;;;;;;334828;158;857589;-78
2022/06/02 06:52:25;;;;;;;;;;;;;;;;;;335385;158;855719;-77
2022/06/02 06:53:27;;;;;;;;;;;;;;;;;;343752;155;855866;-77
2022/06/02 06:54:28;;;;;;;;;;;;;;;;;;342370;156;855925;-77
2022/06/02 06:55:30;;;;;;;;;;;;;;;;;;343364;155;856418;-77
2022/06/02 06:56:31;;;;;;;;;;;;;;;;;;343668;155;855761;-77
2022/06/02 06:57:33;;;;;;;;;;;;;;;;;;347775;156;855712;-77
2022/06/02 06:58:34;;;;;;;;;;;;;;;;;;343077;155;855747;-77
2022/06/02 06:59:36;;;;;;;;;;;;;;;;;;349042;155;855765;-77
2022/06/02 07:00:37;;;;;;;;;;;;;;;;;;341115;155;855842;-77